Аэропорт: Жуляны. Киев

ICAO: UKKK

METAR:
2020-02-20 07:00:00
UKKK 200700Z 22001MPS 9000 NSC 03/M02 Q1019 R26/190060 NOSIG
METAR:
2020-02-20 05:03:00
TAF UKKK 200503Z 2006/2106 21003G08MPS 9999 BKN010 TX06/2012Z TNM01/2105Z TEMPO 2006/2012 1600 -SHRA BR BKN005 SCT012CB BECMG 2014/2016 18003MPS TEMPO 2021/2106 1000 BR BKN004